Time;durP1;ratioP1;P1;durP2;ratioP2;P2;SDS_P1;SDS_P2;PMS_P1;PMS_P2;Temp;Humidity;BMP_temperature;BMP_pressure;BME280_temperature;BME280_humidity;BME280_pressure;Samples;Min_cycle;Max_cycle;Signal;HPM_P1;HPM_P2
2023/03/13 00:00:38;;;;;;;;;;;17.10;61.70;;;;;;5040286;28;874;-69
2023/03/13 00:03:04;;;;;;;;;;;17.10;61.80;;;;;;5045423;28;2685;-68
2023/03/13 00:05:30;;;;;;;;;;;17.10;61.80;;;;;;5049542;28;2402;-68
2023/03/13 00:07:55;;;;;;;;;;;17.10;61.80;;;;;;5050031;28;2198;-68
2023/03/13 00:10:21;;;;;;;;;;;17.10;61.80;;;;;;5047379;28;2145;-70
2023/03/13 00:12:46;;;;;;;;;;;17.10;61.90;;;;;;5072892;28;1949;-70
2023/03/13 00:15:11;;;;;;;;;;;17.10;61.80;;;;;;5043792;28;1617;-69
2023/03/13 00:17:37;;;;;;;;;;;17.10;61.80;;;;;;5040789;28;1321;-69
2023/03/13 00:20:03;;;;;;;;;;;17.10;61.90;;;;;;5039452;28;1070;-69
2023/03/13 00:22:29;;;;;;;;;;;17.10;61.90;;;;;;5038952;28;1241;-69
2023/03/13 00:24:54;;;;;;;;;;;17.10;61.90;;;;;;5038211;28;1296;-69
2023/03/13 00:27:20;;;;;;;;;;;17.10;61.90;;;;;;5041363;28;1270;-70
2023/03/13 00:29:45;;;;;;;;;;;17.10;61.90;;;;;;5048869;28;1441;-70
2023/03/13 00:32:11;;;;;;;;;;;17.00;61.80;;;;;;5039292;28;1930;-69
2023/03/13 00:34:36;;;;;;;;;;;17.00;61.90;;;;;;5039358;28;1091;-69
2023/03/13 00:37:02;;;;;;;;;;;17.10;62.00;;;;;;5040686;28;1442;-69
2023/03/13 00:39:27;;;;;;;;;;;17.00;61.90;;;;;;5038157;28;1334;-69
2023/03/13 00:41:52;;;;;;;;;;;17.10;62.00;;;;;;5040282;28;845;-70
2023/03/13 00:44:18;;;;;;;;;;;17.00;61.90;;;;;;5038045;28;1207;-70
2023/03/13 00:46:43;;;;;;;;;;;17.00;62.00;;;;;;5041076;28;836;-71
2023/03/13 00:49:09;;;;;;;;;;;17.00;62.00;;;;;;5041026;28;863;-70
2023/03/13 00:51:34;;;;;;;;;;;17.00;62.00;;;;;;5041052;28;1894;-69
2023/03/13 00:54:00;;;;;;;;;;;17.00;62.00;;;;;;5040162;28;1243;-68
2023/03/13 00:56:25;;;;;;;;;;;17.00;62.00;;;;;;5036700;28;913;-68
2023/03/13 00:58:51;;;;;;;;;;;17.00;62.00;;;;;;5030848;28;2633;-69
2023/03/13 01:01:23;;;;;;;;;;;17.00;62.00;;;;;;5038807;28;901;-70
2023/03/13 01:03:50;;;;;;;;;;;17.00;62.00;;;;;;5041826;28;1300;-70
2023/03/13 01:06:16;;;;;;;;;;;17.00;62.10;;;;;;5036350;28;923;-69
2023/03/13 01:08:42;;;;;;;;;;;17.00;62.00;;;;;;5039546;28;932;-69
2023/03/13 01:11:08;;;;;;;;;;;17.00;62.00;;;;;;5047093;28;1910;-70
2023/03/13 01:13:34;;;;;;;;;;;17.00;62.00;;;;;;5069383;28;1828;-70
2023/03/13 01:16:03;;;;;;;;;;;17.00;62.10;;;;;;5039201;28;1509;-69
2023/03/13 01:18:28;;;;;;;;;;;17.00;62.10;;;;;;5026041;28;1181;-69
2023/03/13 01:20:54;;;;;;;;;;;17.00;62.10;;;;;;5047832;28;821;-69
2023/03/13 01:23:19;;;;;;;;;;;17.00;62.10;;;;;;5038101;28;1232;-70
2023/03/13 01:25:45;;;;;;;;;;;17.00;62.10;;;;;;5041830;28;1050;-70
2023/03/13 01:28:10;;;;;;;;;;;17.00;62.10;;;;;;5039141;28;844;-70
2023/03/13 01:30:36;;;;;;;;;;;17.00;62.10;;;;;;5037997;28;1955;-69
2023/03/13 01:33:01;;;;;;;;;;;17.00;62.10;;;;;;5038960;28;1249;-68
2023/03/13 01:35:27;;;;;;;;;;;16.90;62.10;;;;;;5035542;28;1470;-68
2023/03/13 01:37:52;;;;;;;;;;;17.00;62.10;;;;;;5039141;28;1485;-68
2023/03/13 01:40:18;;;;;;;;;;;17.00;62.20;;;;;;5038254;28;859;-68
2023/03/13 01:42:53;;;;;;;;;;;17.00;62.10;;;;;;5072591;28;1283;-68
2023/03/13 01:45:38;;;;;;;;;;;17.00;62.20;;;;;;5069638;28;1360;-68
2023/03/13 01:48:03;;;;;;;;;;;16.90;62.10;;;;;;5036556;28;959;-68
2023/03/13 01:50:29;;;;;;;;;;;16.90;62.10;;;;;;5038149;28;863;-68
2023/03/13 01:52:54;;;;;;;;;;;17.00;62.20;;;;;;5040414;28;1906;-68
2023/03/13 01:55:19;;;;;;;;;;;16.90;62.10;;;;;;5040145;28;790;-67
2023/03/13 01:57:46;;;;;;;;;;;17.00;62.20;;;;;;5036737;28;1530;-67
2023/03/13 02:00:12;;;;;;;;;;;16.90;62.20;;;;;;5067880;28;881;-68
2023/03/13 02:02:39;;;;;;;;;;;16.90;62.20;;;;;;5061197;28;1362;-69
2023/03/13 02:05:04;;;;;;;;;;;16.90;62.20;;;;;;5041959;28;1050;-69
2023/03/13 02:07:31;;;;;;;;;;;16.90;62.20;;;;;;5055314;28;1321;-69
2023/03/13 02:09:57;;;;;;;;;;;16.90;62.20;;;;;;5034895;28;1179;-69
2023/03/13 02:12:23;;;;;;;;;;;16.90;62.20;;;;;;5036833;28;1958;-69
2023/03/13 02:14:48;;;;;;;;;;;16.90;62.20;;;;;;5035782;28;813;-69
2023/03/13 02:17:14;;;;;;;;;;;16.90;62.20;;;;;;5037437;28;1073;-68
2023/03/13 02:19:39;;;;;;;;;;;16.90;62.20;;;;;;5057328;28;805;-69
2023/03/13 02:22:08;;;;;;;;;;;16.90;62.20;;;;;;5037945;28;1318;-69
2023/03/13 02:24:40;;;;;;;;;;;16.90;62.20;;;;;;5037381;28;818;-69
2023/03/13 02:27:05;;;;;;;;;;;16.90;62.20;;;;;;5035568;28;883;-69
2023/03/13 02:29:31;;;;;;;;;;;16.90;62.30;;;;;;5069068;28;1387;-69
2023/03/13 02:31:56;;;;;;;;;;;16.90;62.20;;;;;;5067787;28;1902;-69
2023/03/13 02:34:23;;;;;;;;;;;16.90;62.30;;;;;;5040654;28;903;-69
2023/03/13 02:36:49;;;;;;;;;;;16.90;62.30;;;;;;5071426;28;1443;-69
2023/03/13 02:39:15;;;;;;;;;;;16.90;62.30;;;;;;5036534;28;807;-69
2023/03/13 02:41:40;;;;;;;;;;;16.90;62.30;;;;;;5040256;28;901;-69
2023/03/13 02:44:06;;;;;;;;;;;16.90;62.30;;;;;;5040584;28;1231;-69
2023/03/13 02:46:31;;;;;;;;;;;16.90;63.10;;;;;;5072002;28;979;-69
2023/03/13 02:48:58;;;;;;;;;;;16.90;62.30;;;;;;5074370;28;1271;-70
2023/03/13 02:51:28;;;;;;;;;;;16.90;62.30;;;;;;5041965;28;1898;-69
2023/03/13 02:53:55;;;;;;;;;;;16.90;62.30;;;;;;5033826;28;1247;-70
2023/03/13 02:56:21;;;;;;;;;;;16.90;62.30;;;;;;5049437;28;890;-69
2023/03/13 02:58:47;;;;;;;;;;;16.90;62.40;;;;;;5071668;28;959;-70
2023/03/13 03:01:12;;;;;;;;;;;16.90;62.30;;;;;;5044113;28;797;-68
2023/03/13 03:03:38;;;;;;;;;;;16.90;62.40;;;;;;5041738;28;1322;-68
2023/03/13 03:06:03;;;;;;;;;;;16.90;62.40;;;;;;5041919;28;891;-68
2023/03/13 03:08:29;;;;;;;;;;;16.90;62.40;;;;;;5044849;28;840;-68
2023/03/13 03:10:54;;;;;;;;;;;16.90;62.40;;;;;;5042079;28;1902;-69
2023/03/13 03:13:20;;;;;;;;;;;16.90;63.10;;;;;;5042369;28;1287;-68
2023/03/13 03:15:45;;;;;;;;;;;16.90;62.40;;;;;;5036101;28;942;-68
2023/03/13 03:18:11;;;;;;;;;;;16.90;62.40;;;;;;5041803;28;883;-69
2023/03/13 03:20:36;;;;;;;;;;;16.90;62.40;;;;;;5038765;28;1615;-69
2023/03/13 03:23:02;;;;;;;;;;;16.90;62.40;;;;;;5040711;28;1612;-68
2023/03/13 03:25:27;;;;;;;;;;;16.90;62.40;;;;;;5040877;28;1318;-69
2023/03/13 03:27:52;;;;;;;;;;;16.90;62.40;;;;;;5038709;28;1574;-68
2023/03/13 03:30:18;;;;;;;;;;;16.90;62.40;;;;;;5041389;28;867;-68
2023/03/13 03:32:43;;;;;;;;;;;16.90;62.40;;;;;;5049933;28;1914;-68
2023/03/13 03:35:09;;;;;;;;;;;16.90;62.40;;;;;;5041090;28;808;-67
2023/03/13 03:37:34;;;;;;;;;;;16.80;62.40;;;;;;5042122;28;1097;-69
2023/03/13 03:40:00;;;;;;;;;;;16.90;62.50;;;;;;5043480;28;929;-69
2023/03/13 03:42:25;;;;;;;;;;;16.90;62.40;;;;;;5040371;28;1281;-68
2023/03/13 03:44:51;;;;;;;;;;;16.90;62.50;;;;;;5037985;28;944;-69
2023/03/13 03:47:16;;;;;;;;;;;16.90;62.50;;;;;;5040104;28;860;-69
2023/03/13 03:49:42;;;;;;;;;;;16.90;62.40;;;;;;5043164;28;844;-69
2023/03/13 03:52:07;;;;;;;;;;;16.90;62.50;;;;;;5040711;28;1906;-69
2023/03/13 03:54:33;;;;;;;;;;;16.90;62.50;;;;;;5040786;28;863;-69
2023/03/13 03:56:59;;;;;;;;;;;16.90;62.50;;;;;;5039038;28;867;-69
2023/03/13 03:59:24;;;;;;;;;;;16.90;62.50;;;;;;5043748;28;799;-69
2023/03/13 04:01:50;;;;;;;;;;;16.80;62.40;;;;;;5040164;28;924;-69
2023/03/13 04:04:15;;;;;;;;;;;16.80;62.40;;;;;;5040570;28;1248;-68
2023/03/13 04:06:41;;;;;;;;;;;16.90;62.50;;;;;;5043780;28;915;-69
2023/03/13 04:09:06;;;;;;;;;;;16.90;62.50;;;;;;5041352;28;1034;-68
2023/03/13 04:11:32;;;;;;;;;;;16.80;62.40;;;;;;5048021;28;2001;-68
2023/03/13 04:13:57;;;;;;;;;;;16.80;62.40;;;;;;5041899;28;1252;-68
2023/03/13 04:16:22;;;;;;;;;;;16.80;62.50;;;;;;5041532;28;1002;-68
2023/03/13 04:18:48;;;;;;;;;;;16.80;62.50;;;;;;5038084;28;848;-68
2023/03/13 04:21:13;;;;;;;;;;;16.80;62.50;;;;;;5042303;28;927;-68
2023/03/13 04:23:39;;;;;;;;;;;16.80;62.50;;;;;;5041128;28;1237;-68
2023/03/13 04:26:04;;;;;;;;;;;16.80;62.50;;;;;;5043448;28;1034;-69
2023/03/13 04:28:30;;;;;;;;;;;16.80;62.50;;;;;;5044819;28;943;-68
2023/03/13 04:30:57;;;;;;;;;;;16.80;62.50;;;;;;5040473;28;1984;-69
2023/03/13 04:33:23;;;;;;;;;;;16.80;62.50;;;;;;5040107;28;1246;-69
2023/03/13 04:35:48;;;;;;;;;;;16.80;62.50;;;;;;5040805;28;948;-69
2023/03/13 04:38:14;;;;;;;;;;;16.80;62.50;;;;;;5039962;28;1755;-70
2023/03/13 04:40:39;;;;;;;;;;;16.80;62.50;;;;;;5041259;28;868;-69
2023/03/13 04:43:04;;;;;;;;;;;16.80;62.50;;;;;;5040023;28;1259;-70
2023/03/13 04:45:30;;;;;;;;;;;16.80;62.50;;;;;;5042596;28;1034;-70
2023/03/13 04:47:55;;;;;;;;;;;16.80;62.60;;;;;;5046088;28;843;-70
2023/03/13 04:50:21;;;;;;;;;;;16.80;62.60;;;;;;5038877;28;924;-69
2023/03/13 04:52:46;;;;;;;;;;;16.80;62.60;;;;;;5041750;28;1906;-69
2023/03/13 04:55:12;;;;;;;;;;;16.80;62.70;;;;;;5041707;28;980;-70
2023/03/13 04:57:37;;;;;;;;;;;16.80;62.60;;;;;;5038974;28;837;-70
2023/03/13 05:00:06;;;;;;;;;;;16.80;62.60;;;;;;5037214;28;907;-70
2023/03/13 05:02:32;;;;;;;;;;;16.80;62.60;;;;;;5040030;28;1358;-70
2023/03/13 05:04:57;;;;;;;;;;;16.80;62.70;;;;;;5041701;28;978;-69
2023/03/13 05:07:23;;;;;;;;;;;16.80;62.60;;;;;;5045963;28;866;-70
2023/03/13 05:09:48;;;;;;;;;;;16.80;62.60;;;;;;5040259;28;876;-70
2023/03/13 05:12:14;;;;;;;;;;;16.80;62.50;;;;;;5038547;28;1965;-68
2023/03/13 05:14:39;;;;;;;;;;;16.90;62.50;;;;;;5036508;28;937;-69
2023/03/13 05:17:05;;;;;;;;;;;16.90;62.40;;;;;;5039980;28;1002;-69
2023/03/13 05:19:30;;;;;;;;;;;16.90;62.30;;;;;;5040746;28;853;-69
2023/03/13 05:21:55;;;;;;;;;;;16.90;62.10;;;;;;5040765;28;923;-69
2023/03/13 05:24:21;;;;;;;;;;;17.00;62.10;;;;;;5040171;28;773;-68
2023/03/13 05:26:46;;;;;;;;;;;17.00;61.90;;;;;;5037545;28;888;-69
2023/03/13 05:29:12;;;;;;;;;;;17.00;61.80;;;;;;5037076;28;792;-68
2023/03/13 05:31:37;;;;;;;;;;;17.10;61.70;;;;;;5046434;28;1894;-69
2023/03/13 05:34:03;;;;;;;;;;;17.20;61.70;;;;;;5042462;28;1237;-68
2023/03/13 05:36:28;;;;;;;;;;;17.10;61.50;;;;;;5040845;28;884;-68
2023/03/13 05:38:54;;;;;;;;;;;17.20;61.40;;;;;;5038449;28;1088;-69
2023/03/13 05:41:19;;;;;;;;;;;17.20;61.40;;;;;;5037273;28;931;-69
2023/03/13 05:43:45;;;;;;;;;;;17.20;61.20;;;;;;5046842;28;1356;-69
2023/03/13 05:46:10;;;;;;;;;;;17.20;61.10;;;;;;5038975;28;812;-69
2023/03/13 05:48:35;;;;;;;;;;;17.30;61.10;;;;;;5038099;28;954;-68
2023/03/13 05:51:01;;;;;;;;;;;17.30;61.00;;;;;;5037304;28;1958;-69
2023/03/13 05:53:26;;;;;;;;;;;17.30;60.90;;;;;;5036871;28;1324;-68
2023/03/13 05:55:52;;;;;;;;;;;17.30;60.90;;;;;;5071122;28;1010;-69
2023/03/13 05:58:17;;;;;;;;;;;17.30;60.80;;;;;;5040729;28;881;-69
2023/03/13 06:00:43;;;;;;;;;;;17.30;60.80;;;;;;5039986;28;855;-69
2023/03/13 06:03:08;;;;;;;;;;;17.30;60.70;;;;;;5041890;28;1276;-69
2023/03/13 06:05:34;;;;;;;;;;;17.30;60.70;;;;;;5039665;28;1022;-69
2023/03/13 06:08:01;;;;;;;;;;;17.40;60.70;;;;;;5040125;28;836;-69
2023/03/13 06:10:27;;;;;;;;;;;17.40;60.70;;;;;;5039994;28;934;-69
2023/03/13 06:12:55;;;;;;;;;;;17.40;60.60;;;;;;5039707;28;1918;-68
2023/03/13 06:15:21;;;;;;;;;;;17.40;60.60;;;;;;5035806;28;967;-69
2023/03/13 06:17:47;;;;;;;;;;;17.40;60.60;;;;;;5038332;28;1026;-69
2023/03/13 06:20:12;;;;;;;;;;;17.40;60.60;;;;;;5042721;28;931;-69
2023/03/13 06:22:38;;;;;;;;;;;17.40;60.50;;;;;;5041633;28;1362;-69
2023/03/13 06:25:03;;;;;;;;;;;17.40;60.50;;;;;;5042636;28;995;-69
2023/03/13 06:27:29;;;;;;;;;;;17.40;60.50;;;;;;5041170;28;1002;-69
2023/03/13 06:29:54;;;;;;;;;;;17.40;60.50;;;;;;5047959;28;905;-69
2023/03/13 06:32:20;;;;;;;;;;;17.40;60.50;;;;;;5042821;28;1943;-68
2023/03/13 06:34:45;;;;;;;;;;;17.40;60.50;;;;;;5042049;28;853;-69
2023/03/13 06:37:11;;;;;;;;;;;17.40;60.50;;;;;;5045583;28;1487;-69
2023/03/13 06:39:36;;;;;;;;;;;17.40;60.50;;;;;;5042737;28;1321;-69
2023/03/13 06:42:01;;;;;;;;;;;17.40;60.50;;;;;;5042624;28;1508;-69
2023/03/13 06:44:27;;;;;;;;;;;17.40;60.50;;;;;;5037717;28;1671;-72
2023/03/13 06:46:53;;;;;;;;;;;17.40;60.50;;;;;;5041464;28;1848;-69
2023/03/13 06:49:18;;;;;;;;;;;17.40;60.50;;;;;;5052110;28;1267;-69
2023/03/13 06:51:44;;;;;;;;;;;17.40;60.60;;;;;;5075907;28;1902;-70
2023/03/13 06:54:09;;;;;;;;;;;17.40;61.30;;;;;;5042804;28;1316;-70
2023/03/13 06:56:34;;;;;;;;;;;17.40;60.60;;;;;;5040155;28;927;-70
2023/03/13 06:59:00;;;;;;;;;;;17.40;60.60;;;;;;5041157;28;1010;-69
2023/03/13 07:01:26;;;;;;;;;;;17.40;60.60;;;;;;5072728;28;876;-69
2023/03/13 07:03:51;;;;;;;;;;;17.40;60.60;;;;;;5041705;28;1275;-71
2023/03/13 07:06:17;;;;;;;;;;;17.40;60.60;;;;;;5039543;28;914;-71
2023/03/13 07:08:43;;;;;;;;;;;17.40;60.70;;;;;;5027711;28;4211;-70
2023/03/13 07:11:09;;;;;;;;;;;17.40;60.70;;;;;;5034484;28;4686;-70
2023/03/13 07:13:35;;;;;;;;;;;17.40;60.70;;;;;;5040911;28;1239;-71
2023/03/13 07:16:03;;;;;;;;;;;17.40;60.70;;;;;;5040648;28;884;-71
2023/03/13 07:18:28;;;;;;;;;;;17.30;60.60;;;;;;5039993;28;1222;-71
2023/03/13 07:20:54;;;;;;;;;;;17.40;60.70;;;;;;5042448;28;1006;-71
2023/03/13 07:23:20;;;;;;;;;;;17.40;61.50;;;;;;5044228;28;1346;-71
2023/03/13 07:25:52;;;;;;;;;;;17.40;60.80;;;;;;5040588;28;1172;-71
2023/03/13 07:28:18;;;;;;;;;;;17.30;60.70;;;;;;5038702;28;1188;-71
2023/03/13 07:30:43;;;;;;;;;;;17.30;60.70;;;;;;5038489;28;1216;-70
2023/03/13 07:33:09;;;;;;;;;;;17.30;60.70;;;;;;5042179;28;1996;-69
2023/03/13 07:35:34;;;;;;;;;;;17.30;60.80;;;;;;5035621;28;887;-70
2023/03/13 07:37:59;;;;;;;;;;;17.30;60.80;;;;;;5037965;28;1357;-69
2023/03/13 07:40:25;;;;;;;;;;;17.30;60.80;;;;;;5041911;28;799;-69
2023/03/13 07:42:50;;;;;;;;;;;17.30;60.80;;;;;;5039504;28;1243;-69
2023/03/13 07:45:16;;;;;;;;;;;17.30;60.80;;;;;;5036251;28;2216;-67
2023/03/13 07:47:41;;;;;;;;;;;17.30;60.80;;;;;;5030610;28;987;-68
2023/03/13 07:50:07;;;;;;;;;;;17.30;60.80;;;;;;5040123;28;884;-68
2023/03/13 07:52:32;;;;;;;;;;;17.30;60.90;;;;;;5039365;28;1902;-68
2023/03/13 07:54:58;;;;;;;;;;;17.30;60.90;;;;;;5041855;28;1023;-72
2023/03/13 07:57:23;;;;;;;;;;;17.30;60.90;;;;;;5039832;28;888;-72
2023/03/13 07:59:49;;;;;;;;;;;17.30;60.90;;;;;;5037479;28;810;-71
2023/03/13 08:02:15;;;;;;;;;;;17.30;61.00;;;;;;5042044;28;1263;-71
2023/03/13 08:04:41;;;;;;;;;;;17.30;61.00;;;;;;5038305;28;867;-71
2023/03/13 08:07:07;;;;;;;;;;;17.30;61.00;;;;;;5037485;28;1194;-72
2023/03/13 08:09:32;;;;;;;;;;;17.30;61.00;;;;;;5041114;28;1039;-72
2023/03/13 08:11:58;;;;;;;;;;;17.30;61.00;;;;;;5038965;28;1966;-71
2023/03/13 08:14:23;;;;;;;;;;;17.30;61.00;;;;;;5038800;28;938;-71
2023/03/13 08:16:49;;;;;;;;;;;17.30;61.10;;;;;;5042271;28;824;-71
2023/03/13 08:19:14;;;;;;;;;;;17.30;61.10;;;;;;5041058;28;1147;-71
2023/03/13 08:21:40;;;;;;;;;;;17.20;61.10;;;;;;5040062;28;899;-71
2023/03/13 08:24:06;;;;;;;;;;;17.20;61.10;;;;;;5040636;28;1361;-71
2023/03/13 08:26:32;;;;;;;;;;;17.20;61.20;;;;;;5040924;28;851;-71
2023/03/13 08:28:58;;;;;;;;;;;17.20;61.20;;;;;;5038560;28;950;-71
2023/03/13 08:31:28;;;;;;;;;;;17.20;61.20;;;;;;5040122;28;1955;-71
2023/03/13 08:33:53;;;;;;;;;;;17.20;61.20;;;;;;5037966;28;1267;-71
2023/03/13 08:36:25;;;;;;;;;;;17.20;61.20;;;;;;5040539;28;962;-71
2023/03/13 08:38:51;;;;;;;;;;;17.20;61.20;;;;;;5040891;28;2212;-72
2023/03/13 08:41:17;;;;;;;;;;;17.20;61.20;;;;;;5040808;28;1160;-71
2023/03/13 08:43:43;;;;;;;;;;;17.20;61.30;;;;;;5028852;28;1273;-71
2023/03/13 08:46:08;;;;;;;;;;;17.20;61.20;;;;;;5037912;28;1399;-71
2023/03/13 08:48:34;;;;;;;;;;;17.20;61.30;;;;;;5038446;28;1400;-71
2023/03/13 08:51:02;;;;;;;;;;;17.20;61.30;;;;;;5039899;28;1961;-71
2023/03/13 08:53:28;;;;;;;;;;;17.20;61.30;;;;;;5038831;28;1354;-71
2023/03/13 08:55:53;;;;;;;;;;;17.20;61.30;;;;;;5040359;28;1172;-71
2023/03/13 08:58:19;;;;;;;;;;;17.20;61.30;;;;;;5044418;28;877;-71
2023/03/13 09:00:44;;;;;;;;;;;17.20;61.30;;;;;;5039098;28;964;-71
2023/03/13 09:03:10;;;;;;;;;;;17.20;61.30;;;;;;5040704;28;1402;-71
2023/03/13 09:05:38;;;;;;;;;;;17.20;61.40;;;;;;5037705;28;987;-71
2023/03/13 09:08:04;;;;;;;;;;;17.20;61.30;;;;;;5036386;28;908;-71
2023/03/13 09:10:32;;;;;;;;;;;17.20;61.30;;;;;;5036741;28;936;-71
2023/03/13 09:12:57;;;;;;;;;;;17.20;61.40;;;;;;5038470;28;1902;-71
2023/03/13 09:15:23;;;;;;;;;;;17.20;61.30;;;;;;5042192;28;806;-71
2023/03/13 09:17:48;;;;;;;;;;;17.20;61.30;;;;;;5040647;28;833;-71
2023/03/13 09:20:14;;;;;;;;;;;17.20;61.30;;;;;;5040574;28;1173;-71
2023/03/13 09:22:39;;;;;;;;;;;17.20;61.30;;;;;;5038519;28;1803;-71
2023/03/13 09:25:05;;;;;;;;;;;17.20;61.30;;;;;;5047477;28;1526;-71
2023/03/13 09:27:30;;;;;;;;;;;17.20;61.20;;;;;;5039619;28;1363;-71
2023/03/13 09:29:56;;;;;;;;;;;17.30;61.20;;;;;;5039360;28;1422;-71
2023/03/13 09:32:22;;;;;;;;;;;17.30;61.20;;;;;;5037809;28;1995;-71
2023/03/13 09:34:47;;;;;;;;;;;17.30;61.20;;;;;;5042780;28;916;-71
2023/03/13 09:37:13;;;;;;;;;;;17.30;61.10;;;;;;5034453;28;1013;-71
2023/03/13 09:39:38;;;;;;;;;;;17.30;61.10;;;;;;5043267;28;1252;-71
2023/03/13 09:42:14;;;;;;;;;;;17.30;61.10;;;;;;5039726;28;1348;-71
2023/03/13 09:44:49;;;;;;;;;;;17.30;61.10;;;;;;5037063;28;756;-71
2023/03/13 09:47:47;;;;;;;;;;;17.30;61.10;;;;;;5043443;28;1050;-71
2023/03/13 09:50:12;;;;;;;;;;;17.30;61.10;;;;;;5031743;28;1557;-71
2023/03/13 09:52:39;;;;;;;;;;;17.30;61.10;;;;;;5034841;28;1969;-71
2023/03/13 09:55:25;;;;;;;;;;;17.30;61.10;;;;;;5037675;28;895;-71
2023/03/13 09:58:05;;;;;;;;;;;17.30;61.00;;;;;;5038412;28;808;-70
2023/03/13 10:00:30;;;;;;;;;;;17.30;60.90;;;;;;5041208;28;903;-70
2023/03/13 10:02:57;;;;;;;;;;;17.30;60.90;;;;;;5038677;28;1359;-70
2023/03/13 10:05:24;;;;;;;;;;;17.30;60.90;;;;;;5039202;28;806;-70
2023/03/13 10:07:50;;;;;;;;;;;17.40;60.90;;;;;;5039221;28;844;-70
2023/03/13 10:10:20;;;;;;;;;;;17.40;60.80;;;;;;5038026;28;943;-70
2023/03/13 10:12:46;;;;;;;;;;;17.40;60.80;;;;;;5041659;28;1902;-70
2023/03/13 10:15:32;;;;;;;;;;;17.40;60.70;;;;;;5034018;28;810;-70
2023/03/13 10:17:59;;;;;;;;;;;17.40;60.70;;;;;;5033274;28;858;-70
2023/03/13 10:20:28;;;;;;;;;;;17.40;60.60;;;;;;5039970;28;816;-70
2023/03/13 10:23:14;;;;;;;;;;;17.40;60.80;;;;;;5034244;28;1389;-70
2023/03/13 10:25:39;;;;;;;;;;;17.40;61.40;;;;;;5036820;28;1096;-70
2023/03/13 10:28:07;;;;;;;;;;;17.50;60.60;;;;;;5038481;28;1181;-70
2023/03/13 10:30:34;;;;;;;;;;;17.50;60.60;;;;;;5035764;28;821;-70
2023/03/13 10:33:00;;;;;;;;;;;17.50;60.60;;;;;;5040076;28;1895;-70
2023/03/13 10:35:36;;;;;;;;;;;17.50;60.60;;;;;;5041320;28;904;-70
2023/03/13 10:38:03;;;;;;;;;;;17.50;60.60;;;;;;5038424;28;1423;-70
2023/03/13 10:40:28;;;;;;;;;;;17.40;60.60;;;;;;5037141;28;892;-69
2023/03/13 10:43:16;;;;;;;;;;;17.40;60.60;;;;;;5036986;28;1275;-69
2023/03/13 10:45:41;;;;;;;;;;;17.40;60.60;;;;;;5037471;28;789;-69
2023/03/13 10:48:27;;;;;;;;;;;17.40;60.70;;;;;;5038327;28;863;-69
2023/03/13 10:50:53;;;;;;;;;;;17.40;60.70;;;;;;5034521;28;1285;-69
2023/03/13 10:53:19;;;;;;;;;;;17.40;60.70;;;;;;5035436;28;2114;-68
2023/03/13 10:55:44;;;;;;;;;;;17.40;60.80;;;;;;5039847;28;1495;-69
2023/03/13 10:58:12;;;;;;;;;;;17.40;60.80;;;;;;5045322;28;1460;-69
2023/03/13 11:00:38;;;;;;;;;;;17.40;60.80;;;;;;5040989;28;911;-69
2023/03/13 11:03:04;;;;;;;;;;;17.40;60.80;;;;;;5038092;28;1267;-69
2023/03/13 11:05:36;;;;;;;;;;;17.40;60.90;;;;;;5037367;28;857;-69
2023/03/13 11:08:18;;;;;;;;;;;17.30;60.80;;;;;;5037943;28;871;-69
2023/03/13 11:10:51;;;;;;;;;;;17.30;60.90;;;;;;5041493;28;900;-69
2023/03/13 11:13:27;;;;;;;;;;;17.30;60.90;;;;;;5041945;28;1957;-70
2023/03/13 11:15:59;;;;;;;;;;;17.30;60.90;;;;;;5038847;28;1098;-69
2023/03/13 11:18:28;;;;;;;;;;;17.30;60.90;;;;;;5040818;28;924;-69
2023/03/13 11:20:54;;;;;;;;;;;17.30;61.00;;;;;;5040524;28;838;-69
2023/03/13 11:23:29;;;;;;;;;;;17.30;61.00;;;;;;5041042;28;1251;-69
2023/03/13 11:26:00;;;;;;;;;;;17.30;61.30;;;;;;5040860;28;958;-69
2023/03/13 11:28:27;;;;;;;;;;;17.30;61.10;;;;;;5046844;28;1311;-69
2023/03/13 11:31:02;;;;;;;;;;;17.30;61.10;;;;;;5037531;28;824;-69
2023/03/13 11:33:29;;;;;;;;;;;17.30;61.10;;;;;;5040924;28;1202;-69
2023/03/13 11:36:02;;;;;;;;;;;17.30;61.20;;;;;;5037486;28;880;-69
2023/03/13 11:38:33;;;;;;;;;;;17.30;61.20;;;;;;5045371;28;1958;-69
2023/03/13 11:41:02;;;;;;;;;;;17.30;61.20;;;;;;5039512;28;1536;-70
2023/03/13 11:43:38;;;;;;;;;;;17.20;61.20;;;;;;5044754;28;1335;-70
2023/03/13 11:46:12;;;;;;;;;;;17.20;61.20;;;;;;5046602;28;1083;-71
2023/03/13 11:48:47;;;;;;;;;;;17.20;61.20;;;;;;5039700;28;1314;-71
2023/03/13 11:51:23;;;;;;;;;;;17.20;61.30;;;;;;5041771;28;1906;-70
2023/03/13 11:53:58;;;;;;;;;;;17.20;61.30;;;;;;5038585;28;1365;-70
2023/03/13 11:56:26;;;;;;;;;;;17.30;62.40;;;;;;5037868;28;801;-71
2023/03/13 11:58:54;;;;;;;;;;;17.30;62.00;;;;;;5036738;28;935;-71
2023/03/13 12:01:22;;;;;;;;;;;17.30;61.50;;;;;;5039626;28;808;-71
2023/03/13 12:03:50;;;;;;;;;;;17.30;61.40;;;;;;5039203;28;1434;-71
2023/03/13 12:06:27;;;;;;;;;;;17.30;61.60;;;;;;5040687;28;862;-71
2023/03/13 12:09:01;;;;;;;;;;;17.30;61.50;;;;;;5040616;28;1035;-71
2023/03/13 12:11:28;;;;;;;;;;;17.30;61.50;;;;;;5043643;28;1953;-71
2023/03/13 12:13:57;;;;;;;;;;;17.30;61.50;;;;;;5037967;28;1390;-71
2023/03/13 12:16:25;;;;;;;;;;;17.30;61.60;;;;;;5047503;28;918;-71
2023/03/13 12:18:50;;;;;;;;;;;17.20;61.50;;;;;;5045728;28;882;-72
2023/03/13 12:21:18;;;;;;;;;;;17.20;61.60;;;;;;5047736;28;1396;-72
2023/03/13 12:24:01;;;;;;;;;;;17.20;61.60;;;;;;5042078;28;1280;-72
2023/03/13 12:26:38;;;;;;;;;;;17.20;62.40;;;;;;5039649;28;880;-72
2023/03/13 12:29:10;;;;;;;;;;;17.20;61.70;;;;;;5041851;28;1357;-72
2023/03/13 12:31:43;;;;;;;;;;;17.20;61.70;;;;;;5042509;28;1911;-72
2023/03/13 12:34:17;;;;;;;;;;;17.20;61.80;;;;;;5045433;28;1265;-72
2023/03/13 12:36:42;;;;;;;;;;;17.20;61.80;;;;;;5038691;28;1163;-72
2023/03/13 12:39:14;;;;;;;;;;;17.20;61.80;;;;;;5041044;28;1377;-72
2023/03/13 12:41:43;;;;;;;;;;;17.20;61.80;;;;;;5044249;28;808;-73
2023/03/13 12:44:18;;;;;;;;;;;17.20;61.80;;;;;;5041335;28;1280;-72
2023/03/13 12:47:06;;;;;;;;;;;17.10;61.80;;;;;;5041782;28;876;-72
2023/03/13 12:49:38;;;;;;;;;;;17.10;61.80;;;;;;5040942;28;841;-72
2023/03/13 12:52:16;;;;;;;;;;;17.10;61.80;;;;;;5038495;28;1930;-73
2023/03/13 12:55:00;;;;;;;;;;;17.10;61.90;;;;;;5039798;28;943;-72
2023/03/13 12:57:37;;;;;;;;;;;17.10;61.90;;;;;;5039050;28;990;-72
2023/03/13 13:00:05;;;;;;;;;;;17.10;61.90;;;;;;5043999;28;858;-72
2023/03/13 13:02:31;;;;;;;;;;;17.10;62.00;;;;;;5038017;28;1281;-70
2023/03/13 13:04:57;;;;;;;;;;;17.10;62.00;;;;;;5045375;28;1038;-69
2023/03/13 13:07:26;;;;;;;;;;;17.10;62.00;;;;;;5041971;28;980;-71
2023/03/13 13:10:08;;;;;;;;;;;17.10;62.00;;;;;;5042486;28;1076;-69
2023/03/13 13:12:34;;;;;;;;;;;17.10;62.10;;;;;;5038364;28;1973;-69
2023/03/13 13:15:02;;;;;;;;;;;17.10;62.00;;;;;;5036333;28;872;-69
2023/03/13 13:17:38;;;;;;;;;;;17.10;62.00;;;;;;5040054;28;864;-69
2023/03/13 13:20:22;;;;;;;;;;;17.10;62.10;;;;;;5038231;28;821;-71
2023/03/13 13:22:48;;;;;;;;;;;17.10;62.10;;;;;;5038082;28;1680;-71
2023/03/13 13:25:17;;;;;;;;;;;17.10;62.80;;;;;;5044653;28;880;-71
2023/03/13 13:27:42;;;;;;;;;;;17.10;62.10;;;;;;5037846;28;987;-71
2023/03/13 13:30:17;;;;;;;;;;;17.10;62.10;;;;;;5040348;28;887;-71
2023/03/13 13:32:52;;;;;;;;;;;17.10;62.10;;;;;;5044597;28;1890;-70
2023/03/13 13:35:19;;;;;;;;;;;17.00;62.10;;;;;;5037485;28;994;-70
2023/03/13 13:37:45;;;;;;;;;;;17.00;62.10;;;;;;5036929;28;1393;-70
2023/03/13 13:40:22;;;;;;;;;;;17.10;62.20;;;;;;5048259;28;930;-71
2023/03/13 13:42:52;;;;;;;;;;;17.00;62.10;;;;;;5041142;28;1303;-70
2023/03/13 13:45:21;;;;;;;;;;;17.10;62.30;;;;;;5041679;28;1074;-71
2023/03/13 13:47:47;;;;;;;;;;;17.00;62.20;;;;;;5036818;28;824;-71
2023/03/13 13:50:16;;;;;;;;;;;17.00;62.20;;;;;;5045613;28;880;-70
2023/03/13 13:52:41;;;;;;;;;;;17.10;62.30;;;;;;5042988;28;2021;-71
2023/03/13 13:55:25;;;;;;;;;;;17.00;62.20;;;;;;5040145;28;873;-70
2023/03/13 13:57:53;;;;;;;;;;;17.10;62.30;;;;;;5038161;28;888;-71
2023/03/13 14:00:23;;;;;;;;;;;17.10;62.30;;;;;;5037073;28;1263;-71
2023/03/13 14:02:49;;;;;;;;;;;17.10;62.30;;;;;;5039141;28;1276;-71
2023/03/13 14:05:16;;;;;;;;;;;17.00;62.30;;;;;;5037583;28;1104;-71
2023/03/13 14:07:45;;;;;;;;;;;17.10;62.30;;;;;;5037697;28;1081;-71
2023/03/13 14:10:16;;;;;;;;;;;17.00;62.30;;;;;;5047195;28;1062;-71
2023/03/13 14:13:00;;;;;;;;;;;17.00;62.30;;;;;;5042818;28;1959;-70
2023/03/13 14:15:26;;;;;;;;;;;17.00;62.30;;;;;;5047829;28;1433;-71
2023/03/13 14:17:53;;;;;;;;;;;17.00;62.30;;;;;;5039301;28;792;-71
2023/03/13 14:20:26;;;;;;;;;;;17.00;62.40;;;;;;5027027;28;1332;-70
2023/03/13 14:22:52;;;;;;;;;;;17.00;62.30;;;;;;5036982;28;1237;-70
2023/03/13 14:25:18;;;;;;;;;;;17.00;62.30;;;;;;5036058;28;817;-70
2023/03/13 14:27:44;;;;;;;;;;;17.00;62.40;;;;;;5041676;28;812;-70
2023/03/13 14:30:10;;;;;;;;;;;17.00;62.40;;;;;;5040836;28;923;-70
2023/03/13 14:32:36;;;;;;;;;;;17.00;62.40;;;;;;5035022;28;1891;-70
2023/03/13 14:35:04;;;;;;;;;;;17.00;62.40;;;;;;5040094;28;1061;-70
2023/03/13 14:37:56;;;;;;;;;;;17.00;62.40;;;;;;5042193;28;832;-70